Time;durP1;ratioP1;P1;durP2;ratioP2;P2;SDS_P1;SDS_P2;PMS_P1;PMS_P2;Temp;Humidity;BMP_temperature;BMP_pressure;BME280_temperature;BME280_humidity;BME280_pressure;Samples;Min_cycle;Max_cycle;Signal;HPM_P1;HPM_P2
2022/12/27 00:02:24;;;;;;;2.60;1.13;;;;;;;4.68;100.00;101303.41;5060598;28;20191;-76
2022/12/27 00:04:50;;;;;;;1.70;1.00;;;;;;;4.63;100.00;101312.63;5060725;28;20210;-75
2022/12/27 00:07:15;;;;;;;1.40;1.10;;;;;;;4.56;100.00;101309.00;5060947;28;20208;-76
2022/12/27 00:09:40;;;;;;;2.77;1.17;;;;;;;4.53;100.00;101314.06;5062430;28;20224;-76
2022/12/27 00:12:06;;;;;;;1.10;1.00;;;;;;;4.50;100.00;101322.50;5059401;28;20242;-75
2022/12/27 00:14:31;;;;;;;2.50;1.17;;;;;;;4.48;100.00;101328.41;5056718;28;20191;-76
2022/12/27 00:16:56;;;;;;;1.93;1.10;;;;;;;4.43;100.00;101330.81;5059212;28;20222;-76
2022/12/27 00:19:22;;;;;;;3.10;1.20;;;;;;;4.37;100.00;101328.03;5060245;28;20262;-76
2022/12/27 00:21:47;;;;;;;1.50;1.00;;;;;;;4.32;100.00;101325.34;5061433;28;20575;-76
2022/12/27 00:24:12;;;;;;;2.13;1.00;;;;;;;4.27;100.00;101322.63;5057292;28;20191;-75
2022/12/27 00:26:39;;;;;;;2.23;0.97;;;;;;;4.23;100.00;101325.91;5071901;28;20203;-77
2022/12/27 00:29:05;;;;;;;2.27;0.93;;;;;;;4.18;100.00;101327.41;5092405;28;20266;-76
2022/12/27 00:31:31;;;;;;;1.30;1.00;;;;;;;4.15;100.00;101332.47;5079989;28;20285;-76
2022/12/27 00:34:06;;;;;;;2.33;1.10;;;;;;;4.10;100.00;101327.16;5059874;28;20219;-76
2022/12/27 00:36:31;;;;;;;1.83;1.20;;;;;;;4.06;100.00;101334.69;5059947;28;21044;-76
2022/12/27 00:38:58;;;;;;;1.90;1.07;;;;;;;4.02;100.00;101333.72;5061578;28;20191;-75
2022/12/27 00:41:24;;;;;;;1.37;0.97;;;;;;;3.99;100.00;101338.72;5059011;28;20595;-76
2022/12/27 00:43:50;;;;;;;1.83;1.10;;;;;;;3.96;100.00;101343.75;5057949;28;20198;-76
2022/12/27 00:46:15;;;;;;;2.27;1.30;;;;;;;3.94;100.00;101345.38;5059196;28;20642;-77
2022/12/27 00:48:41;;;;;;;1.97;1.03;;;;;;;3.92;100.00;101354.72;5058155;28;20237;-76
2022/12/27 00:51:11;;;;;;;2.43;1.13;;;;;;;3.90;100.00;101362.31;5052695;28;21022;-76
2022/12/27 00:53:37;;;;;;;2.40;1.00;;;;;;;3.87;100.00;101357.09;5053839;28;20668;-76
2022/12/27 00:56:11;;;;;;;1.83;0.90;;;;;;;3.85;100.00;101363.88;5058344;28;20218;-75
2022/12/27 00:58:36;;;;;;;2.80;1.10;;;;;;;3.84;100.00;101361.25;5059005;28;20745;-75
2022/12/27 01:01:22;;;;;;;2.43;1.10;;;;;;;3.83;100.00;101362.06;5059219;28;20242;-75
2022/12/27 01:03:47;;;;;;;2.10;1.20;;;;;;;3.81;100.00;101362.88;5059699;28;20193;-76
2022/12/27 01:06:18;;;;;;;1.67;1.10;;;;;;;3.79;100.00;101358.50;5061581;28;20245;-76
2022/12/27 01:08:45;;;;;;;1.40;1.20;;;;;;;3.76;100.00;101360.97;5061817;28;20209;-77
2022/12/27 01:11:11;;;;;;;2.10;1.27;;;;;;;3.74;100.00;101358.34;5056845;28;20218;-76
2022/12/27 01:13:38;;;;;;;2.20;1.10;;;;;;;3.71;100.00;101360.78;5058029;28;20201;-76
2022/12/27 01:16:10;;;;;;;1.90;1.10;;;;;;;3.71;100.00;101358.25;5057526;28;20202;-75
2022/12/27 01:18:35;;;;;;;1.60;1.13;;;;;;;3.69;100.00;101372.66;5060520;28;20213;-76
2022/12/27 01:21:07;;;;;;;1.67;1.30;;;;;;;3.68;100.00;101373.47;5057972;28;20299;-76
2022/12/27 01:23:32;;;;;;;1.80;1.07;;;;;;;3.66;100.00;101364.88;5058982;28;20192;-75
2022/12/27 01:25:59;;;;;;;1.40;1.20;;;;;;;3.64;100.00;101371.63;5059469;28;20210;-76
2022/12/27 01:28:25;;;;;;;2.23;1.20;;;;;;;3.61;100.00;101369.81;5059698;28;20195;-76
2022/12/27 01:30:50;;;;;;;1.97;1.10;;;;;;;3.59;100.00;101379.13;5059582;28;20194;-77
2022/12/27 01:33:15;;;;;;;2.20;1.00;;;;;;;3.59;100.00;101376.56;5058251;28;20276;-75
2022/12/27 01:35:41;;;;;;;2.20;1.30;;;;;;;3.57;100.00;101379.91;5062157;28;20662;-76
2022/12/27 01:38:06;;;;;;;2.40;1.33;;;;;;;3.54;100.00;101383.22;5056779;28;20178;-76
2022/12/27 01:40:33;;;;;;;3.27;1.40;;;;;;;3.53;100.00;101381.47;5060843;28;20226;-76
2022/12/27 01:42:59;;;;;;;3.13;1.43;;;;;;;3.49;100.00;101385.59;5060262;28;20186;-76
2022/12/27 01:45:26;;;;;;;3.47;2.00;;;;;;;3.48;100.00;101383.84;5062004;28;21030;-75
2022/12/27 01:47:57;;;;;;;2.07;1.47;;;;;;;3.47;100.00;101391.47;5058566;28;20208;-75
2022/12/27 01:50:34;;;;;;;6.07;1.83;;;;;;;3.47;100.00;101394.91;5059317;28;20187;-75
2022/12/27 01:53:18;;;;;;;1.60;1.47;;;;;;;3.44;100.00;101396.47;5059861;28;20197;-77
2022/12/27 01:56:00;;;;;;;2.80;1.60;;;;;;;3.40;100.00;101402.31;5059362;28;20655;-76
2022/12/27 01:58:35;;;;;;;4.23;1.47;;;;;;;3.33;100.00;101406.28;5052628;28;20193;-76
2022/12/27 02:01:02;;;;;;;1.70;1.33;;;;;;;3.25;100.00;101413.69;5060204;28;20210;-75
2022/12/27 02:03:41;;;;;;;1.63;1.20;;;;;;;3.20;100.00;101413.50;5058615;28;20598;-75
2022/12/27 02:06:09;;;;;;;2.33;1.40;;;;;;;3.15;100.00;101415.00;5056367;28;20213;-75
2022/12/27 02:08:55;;;;;;;2.73;1.30;;;;;;;3.12;100.00;101414.88;5062722;28;20198;-76
2022/12/27 02:14:12;;;;;;;2.40;1.60;;;;;;;3.08;100.00;101417.25;5061374;28;20617;-76
2022/12/27 02:16:38;;;;;;;2.93;1.60;;;;;;;3.08;100.00;101407.03;5058007;28;20209;-76
2022/12/27 02:19:20;;;;;;;2.50;1.30;;;;;;;3.04;100.00;101408.56;5064434;28;20185;-75
2022/12/27 02:22:19;;;;;;;2.13;1.57;;;;;;;3.02;100.00;101412.78;5063442;28;20201;-76
2022/12/27 02:24:56;;;;;;;1.70;1.40;;;;;;;2.98;100.00;101410.91;5062701;28;20378;-76
2022/12/27 02:27:51;;;;;;;1.90;1.70;;;;;;;2.93;100.00;101410.72;5063202;28;20731;-75
2022/12/27 02:30:16;;;;;;;1.80;1.50;;;;;;;2.87;100.00;101413.03;5060545;28;20190;-75
2022/12/27 02:33:14;;;;;;;1.80;1.50;;;;;;;2.86;100.00;101407.03;5063212;28;20213;-75
2022/12/27 02:35:44;;;;;;;3.97;2.17;;;;;;;2.85;100.00;101410.41;5057181;28;20296;-74
2022/12/27 02:38:14;;;;;;;2.30;1.67;;;;;;;2.83;100.00;101411.13;5062409;28;20209;-77
2022/12/27 02:55:24;;;;;;;2.73;2.20;;;;;;;2.80;100.00;101421.25;5062535;28;20200;-76
2022/12/27 02:58:04;;;;;;;4.00;2.40;;;;;;;2.78;100.00;101415.22;5059518;28;20208;-75
2022/12/27 03:04:10;;;;;;;3.60;2.60;;;;;;;2.73;100.00;101417.56;5059544;28;20568;-75
2022/12/27 03:07:02;;;;;;;2.80;2.10;;;;;;;2.72;100.00;101418.41;5062859;28;20679;-75
2022/12/27 03:18:06;;;;;;;4.53;2.40;;;;;;;2.66;100.00;101421.53;5061349;28;20193;-76
2022/12/27 03:26:06;;;;;;;2.13;1.70;;;;;;;2.58;100.00;101428.88;5061387;28;20264;-75
2022/12/27 03:34:37;;;;;;;2.37;1.63;;;;;;;2.61;100.00;101428.16;5060653;28;20204;-75
2022/12/27 03:40:02;;;;;;;3.77;2.20;;;;;;;2.65;100.00;101435.13;5061700;28;20209;-75
2022/12/27 03:45:20;;;;;;;3.60;1.83;;;;;;;2.70;100.00;101431.09;5061651;28;20200;-75
2022/12/27 03:48:03;;;;;;;5.00;2.20;;;;;;;2.74;100.00;101430.41;5062149;28;20371;-76
2022/12/27 03:50:39;;;;;;;4.50;1.90;;;;;;;2.77;100.00;101427.09;5059034;28;20182;-75
2022/12/27 03:53:11;;;;;;;2.53;1.80;;;;;;;2.78;100.00;101435.66;5063614;28;20220;-75
2022/12/27 03:55:37;;;;;;;2.47;1.63;;;;;;;2.77;100.00;101434.78;5057713;28;20718;-75
2022/12/27 03:58:03;;;;;;;2.53;1.87;;;;;;;2.74;100.00;101444.88;5062478;28;20198;-75
2022/12/27 04:00:28;;;;;;;3.30;1.90;;;;;;;2.71;100.00;101440.50;5062451;28;20210;-75
2022/12/27 04:02:54;;;;;;;1.93;1.73;;;;;;;2.68;100.00;101442.06;5062276;28;20194;-76
2022/12/27 04:05:19;;;;;;;1.87;1.60;;;;;;;2.65;100.00;101441.94;5062584;28;20182;-75
2022/12/27 04:35:04;;;;;;;2.13;1.60;;;;;;;2.29;100.00;101438.72;5062330;28;20227;-75
2022/12/27 04:37:29;;;;;;;3.70;1.80;;;;;;;2.27;100.00;101442.91;5058953;28;20213;-75
2022/12/27 04:56:27;;;;;;;2.30;1.57;;;;;;;2.06;100.00;101427.50;5059658;28;20314;-75
2022/12/27 05:04:20;;;;;;;1.97;1.53;;;;;;;2.04;100.00;101436.78;5091560;28;20201;-76
2022/12/27 05:06:45;;;;;;;2.13;1.60;;;;;;;2.03;100.00;101434.16;5080444;28;20217;-75
2022/12/27 05:14:45;;;;;;;2.17;1.57;;;;;;;1.99;100.00;101433.16;5055670;28;20198;-76
2022/12/27 05:17:10;;;;;;;1.93;1.53;;;;;;;1.98;100.00;101446.75;5058975;28;20210;-77
2022/12/27 05:19:36;;;;;;;1.80;1.47;;;;;;;1.95;100.00;101446.59;5057009;28;20206;-75
2022/12/27 05:27:29;;;;;;;2.23;1.80;;;;;;;1.90;100.00;101465.94;5055702;28;20212;-76
2022/12/27 05:29:55;;;;;;;2.50;1.90;;;;;;;1.88;100.00;101472.66;5059169;28;20178;-76
2022/12/27 05:32:20;;;;;;;2.97;1.67;;;;;;;1.86;100.00;101472.56;5055875;28;20194;-75
2022/12/27 05:34:45;;;;;;;2.67;1.80;;;;;;;1.83;100.00;101462.22;5059154;28;20194;-76
2022/12/27 05:37:10;;;;;;;2.67;1.60;;;;;;;1.81;100.00;101464.72;5056490;28;20867;-76
2022/12/27 05:39:36;;;;;;;1.93;1.57;;;;;;;1.80;100.00;101469.75;5057877;28;20254;-75
2022/12/27 05:42:02;;;;;;;1.90;1.50;;;;;;;1.79;100.00;101468.88;5059967;28;20196;-75
2022/12/27 05:44:27;;;;;;;2.30;1.50;;;;;;;1.77;100.00;101473.03;5059971;28;20185;-75
2022/12/27 05:46:53;;;;;;;2.17;1.40;;;;;;;1.75;100.00;101464.41;5053355;28;20211;-75
2022/12/27 05:49:18;;;;;;;2.47;1.53;;;;;;;1.72;100.00;101469.41;5057054;28;20186;-75
2022/12/27 05:51:44;;;;;;;2.60;1.80;;;;;;;1.69;100.00;101461.59;5062961;28;20197;-75
2022/12/27 05:54:09;;;;;;;2.77;1.50;;;;;;;1.69;100.00;101464.16;5060385;28;22110;-75
2022/12/27 05:56:36;;;;;;;1.97;1.60;;;;;;;1.68;100.00;101465.81;5061599;28;20784;-75
2022/12/27 05:59:01;;;;;;;1.90;1.60;;;;;;;1.68;100.00;101473.47;5060112;28;20198;-75
2022/12/27 06:01:27;;;;;;;2.50;1.67;;;;;;;1.66;100.00;101469.97;5066645;28;20216;-75
2022/12/27 06:03:52;;;;;;;2.03;1.87;;;;;;;1.66;100.00;101474.22;5064907;28;20281;-75
2022/12/27 06:06:17;;;;;;;2.23;1.80;;;;;;;1.63;100.00;101472.41;5062654;28;20218;-76
2022/12/27 06:08:43;;;;;;;2.20;1.87;;;;;;;1.62;100.00;101474.88;5061473;28;20810;-76
2022/12/27 06:11:11;;;;;;;2.00;1.60;;;;;;;1.62;100.00;101477.41;5062138;28;20179;-76
2022/12/27 06:13:38;;;;;;;2.17;1.60;;;;;;;1.61;100.00;101489.31;5068527;28;20190;-76
2022/12/27 06:16:05;;;;;;;1.63;1.30;;;;;;;1.60;100.00;101487.56;5064416;28;20214;-75
2022/12/27 06:18:33;;;;;;;2.37;1.90;;;;;;;1.60;100.00;101479.03;5063823;28;20633;-76
2022/12/27 06:21:06;;;;;;;2.60;1.47;;;;;;;1.60;100.00;101485.00;5064887;28;20209;-76
2022/12/27 06:23:34;;;;;;;1.70;1.50;;;;;;;1.60;100.00;101482.47;5062252;28;20291;-76
2022/12/27 06:26:23;;;;;;;2.90;1.80;;;;;;;1.60;100.00;101482.47;5064514;28;20202;-76
2022/12/27 06:28:50;;;;;;;4.33;3.93;;;;;;;1.61;100.00;101483.31;5066129;28;20269;-76
2022/12/27 06:31:19;;;;;;;4.87;4.37;;;;;;;1.61;100.00;101488.44;5065939;28;20216;-74
2022/12/27 06:33:45;;;;;;;5.33;4.20;;;;;;;1.59;100.00;101483.25;5065694;28;20296;-75
2022/12/27 06:36:13;;;;;;;4.03;3.53;;;;;;;1.59;100.00;101488.38;5067565;28;20206;-75
2022/12/27 06:38:39;;;;;;;3.37;3.07;;;;;;;1.59;100.00;101495.16;5066119;28;20193;-75
2022/12/27 06:41:07;;;;;;;3.47;2.33;;;;;;;1.58;100.00;101485.75;5066375;28;20210;-75
2022/12/27 06:43:33;;;;;;;2.63;2.07;;;;;;;1.57;100.00;101491.66;5064644;28;20205;-75
2022/12/27 06:46:01;;;;;;;2.37;2.17;;;;;;;1.56;100.00;101493.31;5062949;28;20206;-75
2022/12/27 06:48:28;;;;;;;2.53;2.10;;;;;;;1.59;100.00;101496.03;5054600;28;20251;-75
2022/12/27 06:50:53;;;;;;;3.17;1.77;;;;;;;1.59;100.00;101497.72;5055955;28;20186;-75
2022/12/27 06:53:19;;;;;;;2.27;1.70;;;;;;;1.59;100.00;101496.03;5058275;28;20198;-75
2022/12/27 06:55:44;;;;;;;1.80;1.43;;;;;;;1.59;100.00;101505.38;5057968;28;20221;-75
2022/12/27 06:58:09;;;;;;;2.57;1.70;;;;;;;1.58;100.00;101507.03;5060713;28;20194;-76
2022/12/27 07:00:35;;;;;;;2.17;1.90;;;;;;;1.58;100.00;101514.69;5064367;28;20202;-75
2022/12/27 07:03:02;;;;;;;3.60;3.30;;;;;;;1.57;100.00;101512.94;5058657;28;20192;-75
2022/12/27 07:05:27;;;;;;;4.33;3.90;;;;;;;1.58;100.00;101519.78;5063216;28;20218;-77
2022/12/27 07:07:53;;;;;;;4.00;3.27;;;;;;;1.59;100.00;101528.34;5061999;28;20287;-75
2022/12/27 07:10:19;;;;;;;4.43;3.10;;;;;;;1.62;100.00;101528.44;5059652;28;20321;-74
2022/12/27 07:12:44;;;;;;;3.93;2.87;;;;;;;1.61;100.00;101521.59;5054001;28;20191;-74
2022/12/27 07:15:09;;;;;;;2.93;2.60;;;;;;;1.61;100.00;101527.59;5058997;28;20616;-75
2022/12/27 07:17:35;;;;;;;3.97;3.10;;;;;;;1.62;100.00;101533.56;5076189;28;20206;-74
2022/12/27 07:20:03;;;;;;;3.60;2.97;;;;;;;1.64;100.00;101530.28;5090549;28;20220;-76
2022/12/27 07:22:28;;;;;;;2.63;2.30;;;;;;;1.66;100.00;101528.66;5060396;28;20183;-74
2022/12/27 07:24:54;;;;;;;3.70;2.40;;;;;;;1.67;100.00;101522.75;5063271;28;20202;-74
2022/12/27 07:27:19;;;;;;;3.43;2.27;;;;;;;1.70;100.00;101521.16;5061707;28;20288;-74
2022/12/27 07:29:44;;;;;;;2.57;2.00;;;;;;;1.70;100.00;101527.16;5065028;28;20209;-75
2022/12/27 07:32:10;;;;;;;2.80;1.80;;;;;;;1.73;100.00;101522.19;5064095;28;20186;-74
2022/12/27 07:34:35;;;;;;;4.57;2.23;;;;;;;1.75;100.00;101529.91;5061866;28;20182;-75
2022/12/27 07:37:00;;;;;;;3.27;2.20;;;;;;;1.78;100.00;101530.94;5063020;28;20213;-74
2022/12/27 07:39:26;;;;;;;3.20;2.10;;;;;;;1.81;100.00;101532.78;5063448;28;20904;-75
2022/12/27 07:41:51;;;;;;;2.57;1.80;;;;;;;1.85;100.00;101534.63;5061252;28;20178;-74
2022/12/27 07:44:17;;;;;;;2.40;2.00;;;;;;;1.89;100.00;101545.91;5062470;28;20624;-74
2022/12/27 07:46:42;;;;;;;2.20;1.90;;;;;;;1.92;100.00;101531.59;5063272;28;20217;-74
2022/12/27 07:49:09;;;;;;;2.53;1.90;;;;;;;1.98;100.00;101539.50;5064658;28;20186;-74
2022/12/27 07:51:34;;;;;;;2.20;1.80;;;;;;;2.02;100.00;101538.00;5062916;28;20186;-74
2022/12/27 07:53:59;;;;;;;1.90;1.70;;;;;;;2.06;100.00;101539.88;5065067;28;20691;-75
2022/12/27 07:56:26;;;;;;;2.17;1.97;;;;;;;2.07;100.00;101536.50;5059335;28;20212;-75
2022/12/27 07:58:53;;;;;;;1.67;1.50;;;;;;;2.09;100.00;101532.34;5060281;28;20670;-73
2022/12/27 08:01:20;;;;;;;3.37;2.00;;;;;;;2.12;100.00;101549.47;5059299;28;20201;-74
2022/12/27 08:03:45;;;;;;;2.50;2.10;;;;;;;2.13;100.00;101539.34;5063006;28;20285;-75
2022/12/27 08:06:27;;;;;;;2.07;1.87;;;;;;;2.16;100.00;101542.88;5058557;28;20647;-75
2022/12/27 08:08:54;;;;;;;2.43;2.23;;;;;;;2.19;100.00;101550.66;5064986;28;20186;-74
2022/12/27 08:11:20;;;;;;;2.93;1.87;;;;;;;2.21;100.00;101549.03;5062437;28;20173;-74
2022/12/27 08:13:46;;;;;;;2.93;1.97;;;;;;;2.24;100.00;101555.19;5063484;28;20186;-74
2022/12/27 08:16:20;;;;;;;3.30;2.20;;;;;;;2.29;100.00;101553.69;5063866;28;20197;-74
2022/12/27 08:18:46;;;;;;;3.27;2.30;;;;;;;2.32;100.00;101558.09;5065028;28;20386;-73
2022/12/27 08:21:12;;;;;;;2.77;2.57;;;;;;;2.37;100.00;101550.63;5065437;28;20313;-74
2022/12/27 08:23:37;;;;;;;4.27;3.00;;;;;;;2.41;100.00;101555.94;5063963;28;20198;-73
2022/12/27 08:26:03;;;;;;;4.10;3.50;;;;;;;2.45;100.00;101556.94;5062716;28;20202;-74
2022/12/27 08:28:30;;;;;;;4.20;3.70;;;;;;;2.49;100.00;101555.41;5062548;28;20323;-74
2022/12/27 08:30:57;;;;;;;3.80;3.50;;;;;;;2.54;100.00;101561.59;5064652;28;20186;-74
2022/12/27 08:33:23;;;;;;;4.60;3.50;;;;;;;2.58;100.00;101566.03;5062574;28;20185;-75
2022/12/27 08:35:48;;;;;;;4.60;4.00;;;;;;;2.63;100.00;101558.56;5061953;28;20185;-74
2022/12/27 08:38:14;;;;;;;4.40;4.00;;;;;;;2.67;100.00;101565.56;5065784;28;20250;-74
2022/12/27 08:40:41;;;;;;;5.73;4.77;;;;;;;2.71;100.00;101570.88;5065927;28;20644;-75
2022/12/27 08:43:07;;;;;;;6.97;6.27;;;;;;;2.76;100.00;101570.22;5063410;28;20188;-73
2022/12/27 08:45:32;;;;;;;8.33;7.53;;;;;;;2.83;100.00;101574.78;5063111;28;20607;-74
2022/12/27 08:47:59;;;;;;;9.73;8.83;;;;;;;2.89;100.00;101575.06;5063879;28;20182;-74
2022/12/27 08:50:25;;;;;;;8.07;7.37;;;;;;;2.94;100.00;101568.47;5063590;28;20265;-74
2022/12/27 08:52:51;;;;;;;7.40;6.53;;;;;;;3.00;100.00;101575.50;5065836;28;20649;-73
2022/12/27 08:55:16;;;;;;;5.73;5.23;;;;;;;3.05;100.00;101581.69;5065123;28;20182;-75
2022/12/27 08:57:42;;;;;;;5.50;4.70;;;;;;;3.11;100.00;101583.63;5063158;28;20216;-74
2022/12/27 09:00:08;;;;;;;6.03;4.53;;;;;;;3.20;100.00;101586.59;5064744;28;20205;-74
2022/12/27 09:02:33;;;;;;;3.80;3.50;;;;;;;3.32;100.00;101588.81;5060803;28;21209;-74
2022/12/27 09:04:58;;;;;;;3.17;2.70;;;;;;;3.47;100.00;101580.88;5062541;28;20189;-75
2022/12/27 09:07:24;;;;;;;3.20;2.90;;;;;;;3.68;100.00;101585.97;5064082;28;20236;-74
2022/12/27 09:09:49;;;;;;;3.20;2.90;;;;;;;3.96;100.00;101582.84;5064798;28;20188;-74
2022/12/27 09:12:14;;;;;;;4.50;2.70;;;;;;;4.29;100.00;101583.19;5063184;28;20186;-74
2022/12/27 09:14:40;;;;;;;3.20;2.87;;;;;;;4.55;100.00;101584.16;5063436;28;20204;-76
2022/12/27 09:17:07;;;;;;;3.70;2.40;;;;;;;4.78;100.00;101595.25;5065894;28;20287;-75
2022/12/27 09:19:33;;;;;;;2.43;2.23;;;;;;;4.96;100.00;101597.59;5067418;28;20309;-75
2022/12/27 09:21:58;;;;;;;3.03;2.40;;;;;;;5.12;100.00;101599.00;5066310;28;20943;-75
2022/12/27 09:24:24;;;;;;;3.13;2.23;;;;;;;5.28;100.00;101597.84;5066729;28;20279;-74
2022/12/27 09:26:49;;;;;;;2.67;2.07;;;;;;;5.41;100.00;101595.69;5064871;28;20208;-75
2022/12/27 09:29:14;;;;;;;3.63;2.60;;;;;;;5.49;100.00;101591.66;5067205;28;20189;-74
2022/12/27 09:31:40;;;;;;;3.80;3.10;;;;;;;5.56;100.00;101591.06;5087014;28;20199;-76
2022/12/27 09:34:05;;;;;;;2.87;2.50;;;;;;;5.65;100.00;101596.47;5096443;28;20179;-75
2022/12/27 09:36:30;;;;;;;2.93;2.17;;;;;;;5.73;100.00;101601.00;5070974;28;20208;-75
2022/12/27 09:38:57;;;;;;;3.03;1.93;;;;;;;5.74;100.00;101595.91;5061955;28;20199;-75
2022/12/27 09:41:39;;;;;;;2.97;2.57;;;;;;;5.70;100.00;101596.63;5066510;28;20289;-75
2022/12/27 09:44:12;;;;;;;2.30;2.10;;;;;;;5.62;100.00;101596.38;5064623;28;20210;-75
2022/12/27 09:47:04;;;;;;;2.50;2.30;;;;;;;5.60;100.00;101598.03;5066450;28;20236;-77
2022/12/27 09:49:34;;;;;;;2.30;2.10;;;;;;;5.63;100.00;101598.13;5065059;28;20574;-75
2022/12/27 09:52:11;;;;;;;4.40;2.70;;;;;;;5.71;100.00;101595.81;5066164;28;20606;-75
2022/12/27 09:54:41;;;;;;;3.33;2.60;;;;;;;5.82;100.00;101603.00;5061980;28;20196;-75
2022/12/27 09:57:32;;;;;;;2.83;2.50;;;;;;;5.96;100.00;101601.75;5066311;28;20987;-75
2022/12/27 10:00:00;;;;;;;3.50;2.40;;;;;;;6.14;100.00;101590.28;5063660;28;20289;-76
2022/12/27 10:02:27;;;;;;;4.77;2.03;;;;;;;6.33;100.00;101592.59;5064672;28;20197;-76
2022/12/27 10:04:55;;;;;;;1.60;1.50;;;;;;;6.52;100.00;101599.13;5066848;28;20192;-75
2022/12/27 10:07:48;;;;;;;2.73;1.60;;;;;;;6.74;100.00;101596.31;5065100;28;20199;-76
2022/12/27 10:10:34;;;;;;;2.17;1.63;;;;;;;6.97;100.00;101584.94;5062649;28;20343;-76
2022/12/27 10:13:23;;;;;;;2.93;1.37;;;;;;;7.20;100.00;101597.53;5064348;28;20557;-76
2022/12/27 10:16:26;;;;;;;1.50;1.40;;;;;;;7.45;100.00;101587.88;5063343;28;20197;-76
2022/12/27 10:19:39;;;;;;;1.43;1.33;;;;;;;7.69;100.00;101582.47;5066918;28;20231;-75
2022/12/27 10:22:23;;;;;;;1.80;1.50;;;;;;;7.81;100.00;101575.84;5065003;28;20185;-75
2022/12/27 10:24:51;;;;;;;3.87;2.60;;;;;;;7.81;100.00;101581.84;5063045;28;20217;-75
2022/12/27 10:27:24;;;;;;;5.43;4.10;;;;;;;7.77;100.00;101577.50;5065100;28;20202;-75
2022/12/27 10:29:57;;;;;;;5.63;4.50;;;;;;;7.68;100.00;101569.53;5058497;28;20918;-75
2022/12/27 10:32:22;;;;;;;5.77;3.80;;;;;;;7.59;100.00;101562.44;5066340;28;20224;-75
2022/12/27 10:34:54;;;;;;;4.20;2.77;;;;;;;7.53;100.00;101558.03;5065684;28;20205;-76
2022/12/27 10:37:19;;;;;;;3.40;2.60;;;;;;;7.49;100.00;101558.78;5063619;28;20748;-75
2022/12/27 10:39:44;;;;;;;3.03;2.00;;;;;;;7.44;100.00;101557.81;5063991;28;20214;-74
2022/12/27 10:42:19;;;;;;;3.70;2.03;;;;;;;7.43;100.00;101559.50;5066116;28;20186;-75
2022/12/27 10:44:44;;;;;;;2.23;1.73;;;;;;;7.45;100.00;101562.97;5063862;28;20479;-75
2022/12/27 10:47:10;;;;;;;2.50;1.90;;;;;;;7.51;100.00;101559.69;5064081;28;20237;-76
2022/12/27 10:49:36;;;;;;;2.50;1.77;;;;;;;7.61;100.00;101564.25;5065905;28;20210;-75
2022/12/27 10:52:14;;;;;;;3.27;2.03;;;;;;;7.72;100.00;101558.47;5066034;28;20212;-74
2022/12/27 10:54:53;;;;;;;2.90;1.90;;;;;;;7.75;100.00;101549.09;5065176;28;20186;-75
2022/12/27 10:57:33;;;;;;;3.23;2.10;;;;;;;7.76;100.00;101552.56;5063591;28;20206;-75
2022/12/27 11:00:08;;;;;;;3.27;2.43;;;;;;;7.73;100.00;101548.19;5064078;28;20210;-76
2022/12/27 11:02:33;;;;;;;2.60;2.30;;;;;;;7.71;100.00;101551.56;5063613;28;20658;-76
2022/12/27 11:04:59;;;;;;;3.53;1.87;;;;;;;7.70;100.00;101550.72;5066540;28;20182;-76
2022/12/27 11:07:33;;;;;;;2.87;1.90;;;;;;;7.71;100.00;101548.97;5060611;28;20206;-75
2022/12/27 11:10:17;;;;;;;2.57;1.47;;;;;;;7.74;100.00;101549.06;5063274;28;20234;-75
2022/12/27 11:13:03;;;;;;;2.43;1.60;;;;;;;7.78;100.00;101543.16;5056795;28;20191;-75
2022/12/27 11:15:39;;;;;;;4.33;1.87;;;;;;;7.84;100.00;101537.25;5063024;28;20185;-75
2022/12/27 11:18:17;;;;;;;3.27;1.60;;;;;;;7.87;100.00;101538.19;5062880;28;20849;-76
2022/12/27 11:20:46;;;;;;;2.30;1.47;;;;;;;7.89;100.00;101543.38;5065213;28;20202;-76
2022/12/27 11:23:17;;;;;;;4.27;1.80;;;;;;;7.90;100.00;101540.84;5064980;28;20268;-76
2022/12/27 11:25:52;;;;;;;2.53;1.40;;;;;;;7.91;100.00;101532.28;5062309;28;21876;-75
2022/12/27 11:28:37;;;;;;;1.90;1.50;;;;;;;7.91;100.00;101533.97;5061204;28;20189;-76
2022/12/27 11:31:07;;;;;;;2.20;1.57;;;;;;;7.91;100.00;101536.53;5062663;28;20271;-75
2022/12/27 11:33:36;;;;;;;2.23;1.47;;;;;;;7.88;100.00;101531.31;5057421;28;20182;-75
2022/12/27 11:36:02;;;;;;;2.67;1.70;;;;;;;7.87;100.00;101525.31;5063121;28;20204;-74
2022/12/27 11:38:33;;;;;;;2.67;1.53;;;;;;;7.88;100.00;101532.22;5064338;28;20187;-75
2022/12/27 11:41:15;;;;;;;3.30;1.87;;;;;;;7.90;100.00;101527.06;5063701;28;20902;-75
2022/12/27 11:43:54;;;;;;;4.07;1.90;;;;;;;7.94;100.00;101522.00;5063315;28;20237;-76
2022/12/27 11:46:35;;;;;;;2.87;1.63;;;;;;;8.01;100.00;101523.03;5078990;28;20182;-76
2022/12/27 11:49:08;;;;;;;2.43;1.30;;;;;;;8.08;100.00;101522.31;5096584;28;20177;-77
2022/12/27 11:51:33;;;;;;;3.60;1.70;;;;;;;8.18;100.00;101525.06;5069888;28;20189;-75
2022/12/27 11:54:26;;;;;;;2.73;1.47;;;;;;;8.27;100.00;101521.81;5069073;28;20190;-75
2022/12/27 11:57:13;;;;;;;3.07;1.40;;;;;;;8.30;100.00;101533.09;5060806;28;20214;-75
2022/12/27 11:59:45;;;;;;;1.60;1.30;;;;;;;8.36;100.00;101532.34;5062916;28;20193;-76
2022/12/27 12:02:35;;;;;;;2.87;1.43;;;;;;;8.43;100.00;101533.34;5059315;28;20182;-76
2022/12/27 12:05:15;;;;;;;2.80;1.40;;;;;;;8.44;100.00;101528.19;5061994;28;20210;-75
2022/12/27 12:08:04;;;;;;;1.83;1.07;;;;;;;8.48;100.00;101524.88;5055305;28;20221;-76
2022/12/27 12:10:49;;;;;;;1.20;1.10;;;;;;;8.51;100.00;101516.31;5064080;28;21076;-76
2022/12/27 12:13:43;;;;;;;2.77;1.30;;;;;;;8.59;100.00;101519.94;5059145;28;20254;-75
2022/12/27 12:16:39;;;;;;;2.20;1.30;;;;;;;8.67;100.00;101528.69;5058255;28;20804;-75
2022/12/27 12:19:28;;;;;;;3.63;1.47;;;;;;;8.77;99.82;101516.81;5046967;28;20781;-75
2022/12/27 12:22:19;;;;;;;3.37;1.73;;;;;;;8.90;99.16;101522.19;5062320;28;20565;-75
2022/12/27 12:24:50;;;;;;;2.27;1.30;;;;;;;9.01;98.93;101528.41;5062019;28;20267;-76
2022/12/27 12:27:38;;;;;;;3.10;1.50;;;;;;;9.12;98.52;101514.00;5064209;28;20247;-76
2022/12/27 12:30:09;;;;;;;2.47;1.27;;;;;;;9.24;98.11;101520.19;5062190;28;20251;-75
2022/12/27 12:32:48;;;;;;;2.23;1.20;;;;;;;9.26;97.35;101516.78;5062697;28;20358;-74
2022/12/27 12:35:22;;;;;;;2.37;1.10;;;;;;;9.28;97.50;101511.66;5059998;28;20205;-76
2022/12/27 12:38:03;;;;;;;1.83;1.20;;;;;;;9.26;97.03;101510.75;5061341;28;20292;-75
2022/12/27 12:41:03;;;;;;;2.80;1.30;;;;;;;9.20;96.55;101510.66;5057390;28;20206;-76
2022/12/27 12:43:47;;;;;;;3.50;1.40;;;;;;;9.12;95.95;101519.16;5058966;28;20198;-75
2022/12/27 12:46:25;;;;;;;2.17;1.30;;;;;;;9.06;95.10;101513.03;5060636;28;20335;-75
2022/12/27 12:48:53;;;;;;;2.30;1.37;;;;;;;8.98;95.14;101513.75;5061368;28;20185;-74
2022/12/27 12:51:24;;;;;;;3.13;1.40;;;;;;;8.96;95.76;101518.00;5061819;28;20268;-75
2022/12/27 12:54:22;;;;;;;2.57;1.50;;;;;;;8.93;96.03;101510.19;5057765;28;20198;-75
2022/12/27 12:56:53;;;;;;;3.50;1.77;;;;;;;8.88;95.82;101503.22;5060032;28;20213;-75
2022/12/27 12:59:18;;;;;;;2.63;1.80;;;;;;;8.85;95.96;101497.16;5061731;28;20288;-75
2022/12/27 13:01:55;;;;;;;3.00;1.73;;;;;;;8.85;95.77;101511.78;5063060;28;20226;-74
2022/12/27 13:04:40;;;;;;;3.43;2.23;;;;;;;8.87;94.27;101504.06;5058724;28;20196;-75
2022/12/27 13:07:22;;;;;;;4.00;1.70;;;;;;;8.79;94.62;101511.66;5061686;28;20236;-74
2022/12/27 13:09:56;;;;;;;2.83;2.00;;;;;;;8.74;95.12;101495.25;5059532;28;20238;-75
2022/12/27 13:12:30;;;;;;;3.63;2.00;;;;;;;8.72;95.79;101489.19;5063338;28;20208;-75
2022/12/27 13:15:01;;;;;;;2.77;1.60;;;;;;;8.67;95.51;101491.69;5062152;28;20189;-75
2022/12/27 13:17:40;;;;;;;4.23;1.97;;;;;;;8.62;95.70;101489.00;5057317;28;20217;-75
2022/12/27 13:21:08;;;;;;;2.20;1.50;;;;;;;8.57;95.84;101484.59;5062477;28;20709;-75
2022/12/27 13:23:33;;;;;;;3.07;1.50;;;;;;;8.47;96.04;101479.25;5030158;28;20201;-75
2022/12/27 13:26:08;;;;;;;3.70;1.70;;;;;;;8.43;96.25;101486.91;5060337;28;20226;-74
2022/12/27 13:29:16;;;;;;;3.93;2.00;;;;;;;8.35;95.92;101472.13;5063254;28;20189;-75
2022/12/27 13:32:17;;;;;;;3.70;1.60;;;;;;;8.29;95.76;101481.47;5061846;28;20234;-74
2022/12/27 13:34:43;;;;;;;3.03;1.50;;;;;;;8.26;95.09;101476.25;5059329;28;20678;-75